Alder, Washington
Current Conditions -  °F | °C
As of 1:34 AM on Saturday 01 Nov 2014 (Local Time) from KGRF Reporting Station
Broken Clouds Broken Clouds  
Wind Chill: 43°   Ceiling: 1200
Heat Index: 43°   Visibility: 7mi
Dew Point: 41°   Wind: 2mph
Humidity: 93%   Direction: 140°SE
Pressure: 29.86"   Gusts: NA
Location:  46.8687°N, 122.208°W
Report Text: KGRF 010834Z AUTO 14002KT 7SM FEW001 SCT007 BKN012 06/05 A2986 RMK AO2
Loading
Personal Weather Stations






























Interactive Weather Map
Tropical Storm Tracking
New forecast layout! Learn more

10-Day Weather Forecast

Advertisements
Track Severe Weather on mobile